Time;durP1;ratioP1;P1;durP2;ratioP2;P2;SDS_P1;SDS_P2;PMS_P1;PMS_P2;Temp;Humidity;BMP_temperature;BMP_pressure;BME280_temperature;BME280_humidity;BME280_pressure;Samples;Min_cycle;Max_cycle;Signal;HPM_P1;HPM_P2
2022/12/28 00:02:16;;;;;;;;;;;-0.20;99.90;;;;;;5034143;28;19914;-75
2022/12/28 00:04:42;;;;;;;;;;;-0.20;99.90;;;;;;5034922;28;19914;-74
2022/12/28 00:07:08;;;;;;;;;;;-0.20;99.90;;;;;;5017218;28;20012;-75
2022/12/28 00:09:33;;;;;;;;;;;-0.30;99.90;;;;;;5035161;28;19914;-74
2022/12/28 00:11:59;;;;;;;;;;;-0.40;99.90;;;;;;5033628;28;20455;-75
2022/12/28 00:14:25;;;;;;;;;;;-0.40;99.90;;;;;;5035132;28;19921;-75
2022/12/28 00:16:50;;;;;;;;;;;-0.40;99.90;;;;;;5034733;28;19949;-75
2022/12/28 00:19:16;;;;;;;;;;;-0.40;99.90;;;;;;5034904;28;19914;-75
2022/12/28 00:21:42;;;;;;;;;;;-0.40;99.90;;;;;;5035078;28;19957;-75
2022/12/28 00:24:10;;;;;;;;;;;-0.30;99.90;;;;;;5034767;28;19917;-75
2022/12/28 00:26:36;;;;;;;;;;;-0.30;99.90;;;;;;5034876;28;20280;-74
2022/12/28 00:29:02;;;;;;;;;;;-0.30;99.90;;;;;;5034929;28;20009;-75
2022/12/28 00:31:27;;;;;;;;;;;-0.30;99.90;;;;;;5034638;28;19909;-75
2022/12/28 00:33:53;;;;;;;;;;;-0.30;99.90;;;;;;5034788;28;19913;-75
2022/12/28 00:36:18;;;;;;;;;;;-0.30;99.90;;;;;;5016854;28;20381;-74
2022/12/28 00:38:44;;;;;;;;;;;-0.30;99.90;;;;;;5034438;28;20437;-75
2022/12/28 00:41:10;;;;;;;;;;;-0.30;99.90;;;;;;5016856;28;20285;-74
2022/12/28 00:43:35;;;;;;;;;;;-0.30;99.90;;;;;;5034264;28;19913;-75
2022/12/28 00:46:01;;;;;;;;;;;-0.40;99.90;;;;;;5016684;28;19917;-74
2022/12/28 00:48:27;;;;;;;;;;;-0.40;99.90;;;;;;5034305;28;20442;-75
2022/12/28 00:50:59;;;;;;;;;;;-0.40;99.90;;;;;;5034589;28;19909;-74
2022/12/28 00:53:25;;;;;;;;;;;-0.40;99.90;;;;;;5015769;28;19920;-74
2022/12/28 00:55:50;;;;;;;;;;;-0.40;99.90;;;;;;5034310;28;19913;-74
2022/12/28 00:58:16;;;;;;;;;;;-0.40;99.90;;;;;;5033276;28;19913;-75
2022/12/28 01:00:41;;;;;;;;;;;-0.40;99.90;;;;;;5034457;28;20381;-74
2022/12/28 01:03:07;;;;;;;;;;;-0.30;99.90;;;;;;5034116;28;20266;-75
2022/12/28 01:05:32;;;;;;;;;;;-0.30;99.90;;;;;;5034280;28;20003;-74
2022/12/28 01:07:58;;;;;;;;;;;-0.30;99.90;;;;;;5034519;28;19960;-75
2022/12/28 01:10:23;;;;;;;;;;;-0.30;99.90;;;;;;5034194;28;19913;-75
2022/12/28 01:12:49;;;;;;;;;;;-0.30;99.90;;;;;;5032904;28;19921;-74
2022/12/28 01:15:14;;;;;;;;;;;-0.30;99.90;;;;;;5034003;28;19948;-74
2022/12/28 01:17:40;;;;;;;;;;;-0.30;99.90;;;;;;5032582;28;19913;-75
2022/12/28 01:20:06;;;;;;;;;;;-0.30;99.90;;;;;;5034723;28;20353;-75
2022/12/28 01:22:32;;;;;;;;;;;-0.30;99.90;;;;;;5033781;28;19910;-74
2022/12/28 01:24:58;;;;;;;;;;;-0.30;99.90;;;;;;5033981;28;19909;-74
2022/12/28 01:27:24;;;;;;;;;;;-0.30;99.90;;;;;;5034036;28;19914;-75
2022/12/28 01:29:49;;;;;;;;;;;-0.40;99.90;;;;;;5033946;28;19916;-75
2022/12/28 01:32:15;;;;;;;;;;;-0.40;99.90;;;;;;5078737;22;19928;-75
2022/12/28 01:34:41;;;;;;;;;;;-0.50;99.90;;;;;;5114505;28;19912;-75
2022/12/28 01:37:06;;;;;;;;;;;-0.50;99.90;;;;;;5114192;28;20362;-75
2022/12/28 01:39:32;;;;;;;;;;;-0.50;99.90;;;;;;5114234;28;19908;-74
2022/12/28 01:41:57;;;;;;;;;;;-0.50;99.90;;;;;;5112810;28;19912;-74
2022/12/28 01:44:23;;;;;;;;;;;-0.50;99.90;;;;;;5114153;28;19919;-75
2022/12/28 01:46:51;;;;;;;;;;;-0.50;99.90;;;;;;5114149;28;20426;-75
2022/12/28 01:49:16;;;;;;;;;;;-0.50;99.90;;;;;;5095985;28;19962;-74
2022/12/28 01:51:51;;;;;;;;;;;-0.50;99.90;;;;;;5114012;28;19950;-75
2022/12/28 01:54:17;;;;;;;;;;;-0.40;99.90;;;;;;5114071;28;19965;-74
2022/12/28 01:56:43;;;;;;;;;;;-0.40;99.90;;;;;;5112515;28;19912;-74
2022/12/28 01:59:09;;;;;;;;;;;-0.40;99.90;;;;;;5114068;28;20007;-74
2022/12/28 02:01:35;;;;;;;;;;;-0.40;99.90;;;;;;5113869;28;19951;-75
2022/12/28 02:04:01;;;;;;;;;;;-0.40;99.90;;;;;;5115209;28;19955;-74
2022/12/28 02:06:26;;;;;;;;;;;-0.40;99.90;;;;;;5118040;28;19919;-74
2022/12/28 02:09:00;;;;;;;;;;;-0.40;99.90;;;;;;5118323;28;20011;-74
2022/12/28 02:11:25;;;;;;;;;;;-0.30;99.90;;;;;;5118131;28;19954;-74
2022/12/28 02:13:51;;;;;;;;;;;-0.30;99.90;;;;;;5118025;28;19973;-74
2022/12/28 02:16:17;;;;;;;;;;;-0.30;99.90;;;;;;5117817;28;19915;-74
2022/12/28 02:18:43;;;;;;;;;;;-0.30;99.90;;;;;;5117663;28;19919;-74
2022/12/28 02:21:09;;;;;;;;;;;-0.30;99.90;;;;;;5117739;28;19912;-74
2022/12/28 02:23:52;;;;;;;;;;;-0.30;99.90;;;;;;5117604;28;20293;-74
2022/12/28 02:26:29;;;;;;;;;;;-0.30;99.90;;;;;;5117929;28;20057;-74
2022/12/28 02:28:55;;;;;;;;;;;-0.30;99.90;;;;;;5117559;28;20000;-74
2022/12/28 02:31:27;;;;;;;;;;;-0.30;99.90;;;;;;5117478;28;19966;-74
2022/12/28 02:33:58;;;;;;;;;;;-0.30;99.90;;;;;;5117264;28;19916;-74
2022/12/28 02:36:30;;;;;;;;;;;-0.20;99.90;;;;;;5117719;28;19907;-74
2022/12/28 02:38:59;;;;;;;;;;;-0.30;99.90;;;;;;5117304;28;19907;-74
2022/12/28 02:41:25;;;;;;;;;;;-0.30;99.90;;;;;;5099049;28;19908;-74
2022/12/28 02:43:51;;;;;;;;;;;-0.30;99.90;;;;;;5117197;28;19954;-74
2022/12/28 02:52:25;;;;;;;;;;;-0.30;99.90;;;;;;5117434;28;19919;-74
2022/12/28 02:57:34;;;;;;;;;;;-0.30;99.90;;;;;;5117397;28;19915;-74
2022/12/28 03:00:08;;;;;;;;;;;-0.30;99.90;;;;;;5117265;28;19908;-74
2022/12/28 03:02:36;;;;;;;;;;;-0.30;99.90;;;;;;5117263;28;19915;-74
2022/12/28 03:08:13;;;;;;;;;;;-0.30;99.90;;;;;;5116830;28;19953;-74
2022/12/28 03:08:18;;;;;;;;;;;-0.30;99.90;;;;;;5116745;28;20298;-74
2022/12/28 03:10:56;;;;;;;;;;;-0.30;99.90;;;;;;5117296;28;19912;-74
2022/12/28 03:13:44;;;;;;;;;;;-0.30;99.90;;;;;;5116549;28;19965;-74
2022/12/28 03:16:21;;;;;;;;;;;-0.30;99.90;;;;;;5116042;28;19951;-74
2022/12/28 03:32:47;;;;;;;;;;;-0.30;99.90;;;;;;5116300;28;19962;-74
2022/12/28 03:35:15;;;;;;;;;;;-0.30;99.90;;;;;;5116413;28;19908;-74
2022/12/28 03:37:59;;;;;;;;;;;-0.30;99.90;;;;;;5116455;28;19954;-74
2022/12/28 03:40:27;;;;;;;;;;;-0.30;99.90;;;;;;5116237;28;19907;-74
2022/12/28 03:45:38;;;;;;;;;;;-0.30;99.90;;;;;;5116798;28;19958;-74
2022/12/28 03:48:04;;;;;;;;;;;-0.30;99.90;;;;;;5116014;28;19908;-74
2022/12/28 03:50:33;;;;;;;;;;;-0.30;99.90;;;;;;5115958;28;19916;-74
2022/12/28 03:52:59;;;;;;;;;;;-0.30;99.90;;;;;;5115786;28;19912;-74
2022/12/28 03:55:25;;;;;;;;;;;-0.30;99.90;;;;;;5097921;28;19969;-74
2022/12/28 03:57:51;;;;;;;;;;;-0.30;99.90;;;;;;5097597;28;20049;-75
2022/12/28 04:00:16;;;;;;;;;;;-0.30;99.90;;;;;;5116105;28;19919;-75
2022/12/28 04:02:42;;;;;;;;;;;-0.30;99.90;;;;;;5116016;28;20481;-75
2022/12/28 04:05:08;;;;;;;;;;;-0.30;99.90;;;;;;5116007;28;19912;-75
2022/12/28 04:07:33;;;;;;;;;;;-0.30;99.90;;;;;;5115847;28;20367;-75
2022/12/28 04:09:59;;;;;;;;;;;-0.30;99.90;;;;;;5115857;28;19915;-75
2022/12/28 04:12:25;;;;;;;;;;;-0.40;99.90;;;;;;5115502;28;20018;-74
2022/12/28 04:14:51;;;;;;;;;;;-0.40;99.90;;;;;;5097248;28;19959;-74
2022/12/28 04:17:16;;;;;;;;;;;-0.40;99.90;;;;;;5115406;28;19947;-74
2022/12/28 04:19:42;;;;;;;;;;;-0.40;99.90;;;;;;5097329;28;19970;-75
2022/12/28 04:22:07;;;;;;;;;;;-0.40;99.90;;;;;;5097018;28;19919;-74
2022/12/28 04:24:33;;;;;;;;;;;-0.50;99.90;;;;;;5115333;28;19912;-74
2022/12/28 04:26:58;;;;;;;;;;;-0.50;99.90;;;;;;5115219;28;19915;-74
2022/12/28 04:29:24;;;;;;;;;;;-0.60;99.90;;;;;;5115739;28;19912;-74
2022/12/28 04:31:49;;;;;;;;;;;-0.50;99.90;;;;;;5114823;28;19943;-74
2022/12/28 04:34:15;;;;;;;;;;;-0.60;99.90;;;;;;5115414;28;20287;-75
2022/12/28 04:36:41;;;;;;;;;;;-0.60;99.90;;;;;;5115104;28;19908;-74
2022/12/28 04:39:07;;;;;;;;;;;-0.50;99.90;;;;;;5114930;28;19915;-74
2022/12/28 04:41:33;;;;;;;;;;;-0.50;99.90;;;;;;5114924;28;19912;-74
2022/12/28 04:43:58;;;;;;;;;;;-0.50;99.90;;;;;;5115041;28;19911;-74
2022/12/28 04:46:24;;;;;;;;;;;-0.50;99.90;;;;;;5115113;28;19959;-75
2022/12/28 04:48:49;;;;;;;;;;;-0.50;99.90;;;;;;5096519;28;19944;-74
2022/12/28 04:51:20;;;;;;;;;;;-0.50;99.90;;;;;;5115098;28;19927;-74
2022/12/28 04:53:46;;;;;;;;;;;-0.50;99.90;;;;;;5096437;28;19956;-74
2022/12/28 04:56:12;;;;;;;;;;;-0.50;99.90;;;;;;5114686;28;19907;-74
2022/12/28 04:58:38;;;;;;;;;;;-0.50;99.90;;;;;;5114708;28;20286;-75
2022/12/28 05:01:05;;;;;;;;;;;-0.50;99.90;;;;;;5113378;28;19991;-75
2022/12/28 05:03:30;;;;;;;;;;;-0.50;99.90;;;;;;5114551;28;20424;-75
2022/12/28 05:06:00;;;;;;;;;;;-0.50;99.90;;;;;;5115161;28;19915;-75
2022/12/28 05:08:25;;;;;;;;;;;-0.50;99.90;;;;;;5096272;28;20278;-75
2022/12/28 05:10:51;;;;;;;;;;;-0.50;99.90;;;;;;5114538;28;19959;-75
2022/12/28 05:13:16;;;;;;;;;;;-0.60;99.90;;;;;;5096287;28;19923;-75
2022/12/28 05:15:42;;;;;;;;;;;-0.60;99.90;;;;;;5114445;28;19959;-75
2022/12/28 05:18:07;;;;;;;;;;;-0.60;99.90;;;;;;5114689;28;19919;-75
2022/12/28 05:20:33;;;;;;;;;;;-0.50;99.90;;;;;;5114395;28;19912;-75
2022/12/28 05:22:58;;;;;;;;;;;-0.50;99.90;;;;;;5114122;28;19912;-74
2022/12/28 05:25:24;;;;;;;;;;;-0.50;99.90;;;;;;5113016;28;19918;-74
2022/12/28 05:27:50;;;;;;;;;;;-0.50;99.90;;;;;;5114136;28;20010;-74
2022/12/28 05:30:15;;;;;;;;;;;-0.50;99.90;;;;;;5116535;27;19961;-74
2022/12/28 05:32:41;;;;;;;;;;;-0.50;99.90;;;;;;5104334;28;19916;-74
2022/12/28 05:35:07;;;;;;;;;;;-0.50;99.90;;;;;;5113792;28;19962;-75
2022/12/28 05:37:32;;;;;;;;;;;-0.50;99.90;;;;;;5113964;28;19930;-76
2022/12/28 05:39:58;;;;;;;;;;;-0.50;99.90;;;;;;5119068;28;19955;-74
2022/12/28 05:42:23;;;;;;;;;;;-0.60;99.90;;;;;;5120800;28;19911;-75
2022/12/28 05:44:49;;;;;;;;;;;-0.60;99.90;;;;;;5120793;28;19977;-74
2022/12/28 05:47:14;;;;;;;;;;;-0.60;99.90;;;;;;5119997;28;19911;-74
2022/12/28 05:49:40;;;;;;;;;;;-0.60;99.90;;;;;;5120601;28;19965;-74
2022/12/28 05:52:05;;;;;;;;;;;-0.60;99.90;;;;;;5120669;28;20018;-74
2022/12/28 05:54:31;;;;;;;;;;;-0.60;99.90;;;;;;5120817;28;19919;-75
2022/12/28 05:56:58;;;;;;;;;;;-0.60;99.90;;;;;;5120823;28;19919;-75
2022/12/28 05:59:23;;;;;;;;;;;-0.60;99.90;;;;;;5120671;28;19969;-74
2022/12/28 06:01:49;;;;;;;;;;;-0.60;99.90;;;;;;5120532;28;20003;-74
2022/12/28 06:04:16;;;;;;;;;;;-0.60;99.90;;;;;;5120356;28;20279;-74
2022/12/28 06:06:42;;;;;;;;;;;-0.70;99.90;;;;;;5120564;28;19908;-74
2022/12/28 06:09:07;;;;;;;;;;;-0.70;99.90;;;;;;5102243;28;19915;-74
2022/12/28 06:11:33;;;;;;;;;;;-0.70;99.90;;;;;;5102251;28;20264;-75
2022/12/28 06:13:59;;;;;;;;;;;-0.80;99.90;;;;;;5118511;27;19934;-75
2022/12/28 06:16:26;;;;;;;;;;;-0.80;99.90;;;;;;5113870;28;19939;-75
2022/12/28 06:18:52;;;;;;;;;;;-0.80;99.90;;;;;;5120202;28;20274;-74
2022/12/28 06:21:37;;;;;;;;;;;-0.80;99.90;;;;;;5120487;28;19915;-75
2022/12/28 06:24:03;;;;;;;;;;;-0.80;99.90;;;;;;5120526;28;19912;-75
2022/12/28 06:26:30;;;;;;;;;;;-0.80;99.90;;;;;;5120662;28;19914;-75
2022/12/28 06:28:56;;;;;;;;;;;-0.90;99.90;;;;;;5120370;28;20007;-75
2022/12/28 06:31:24;;;;;;;;;;;-0.90;99.90;;;;;;5120389;28;19947;-74
2022/12/28 06:33:54;;;;;;;;;;;-0.90;99.90;;;;;;5120088;28;19970;-74
2022/12/28 06:36:21;;;;;;;;;;;-1.00;99.90;;;;;;5120385;28;20279;-74
2022/12/28 06:38:48;;;;;;;;;;;-1.10;99.90;;;;;;5120332;28;20379;-75
2022/12/28 06:41:13;;;;;;;;;;;-1.20;99.90;;;;;;5101928;28;19915;-75
2022/12/28 06:43:40;;;;;;;;;;;-1.30;99.90;;;;;;5115822;28;20291;-75
2022/12/28 06:46:06;;;;;;;;;;;-1.40;99.90;;;;;;5101831;28;19915;-75
2022/12/28 06:48:32;;;;;;;;;;;-1.40;99.90;;;;;;5120138;28;19951;-75
2022/12/28 06:50:59;;;;;;;;;;;-1.40;99.90;;;;;;5116402;28;19958;-75
2022/12/28 06:53:26;;;;;;;;;;;-1.40;99.90;;;;;;5114457;28;20268;-75
2022/12/28 06:55:55;;;;;;;;;;;-1.30;99.90;;;;;;5115874;28;19914;-74
2022/12/28 06:58:25;;;;;;;;;;;-1.30;99.90;;;;;;5116029;28;19912;-75
2022/12/28 07:00:50;;;;;;;;;;;-1.30;99.90;;;;;;5118262;27;19908;-75
2022/12/28 07:03:16;;;;;;;;;;;-1.30;99.90;;;;;;5135054;27;19918;-75
2022/12/28 07:05:41;;;;;;;;;;;-1.30;99.90;;;;;;5103560;28;19912;-74
2022/12/28 07:08:07;;;;;;;;;;;-1.30;99.90;;;;;;5116783;28;19912;-74
2022/12/28 07:10:33;;;;;;;;;;;-1.30;99.90;;;;;;5116937;28;20355;-74
2022/12/28 07:12:59;;;;;;;;;;;-1.30;99.90;;;;;;5116641;28;19911;-75
2022/12/28 07:15:24;;;;;;;;;;;-1.30;99.90;;;;;;5116853;28;19908;-74
2022/12/28 07:17:50;;;;;;;;;;;-1.30;99.90;;;;;;5098446;28;20383;-74
2022/12/28 07:20:16;;;;;;;;;;;-1.30;99.90;;;;;;5098437;28;19908;-75
2022/12/28 07:22:41;;;;;;;;;;;-1.30;99.90;;;;;;5116512;28;19912;-74
2022/12/28 07:25:07;;;;;;;;;;;-1.30;99.90;;;;;;5116620;28;19919;-75
2022/12/28 07:27:36;;;;;;;;;;;-1.20;99.90;;;;;;5116407;28;20423;-75
2022/12/28 07:30:02;;;;;;;;;;;-1.20;99.90;;;;;;5116826;28;20015;-75
2022/12/28 07:32:27;;;;;;;;;;;-1.10;99.90;;;;;;5117038;28;20396;-74
2022/12/28 07:34:53;;;;;;;;;;;-1.10;99.90;;;;;;5098132;28;19918;-75
2022/12/28 07:37:18;;;;;;;;;;;-1.10;99.90;;;;;;5098191;28;20371;-75
2022/12/28 07:39:44;;;;;;;;;;;-1.10;99.90;;;;;;5116365;28;20286;-75
2022/12/28 07:42:11;;;;;;;;;;;-1.10;99.90;;;;;;5116218;28;20019;-75
2022/12/28 07:44:44;;;;;;;;;;;-1.10;99.90;;;;;;5116703;28;20283;-75
2022/12/28 07:47:10;;;;;;;;;;;-1.00;99.90;;;;;;5116769;28;19913;-75
2022/12/28 07:49:36;;;;;;;;;;;-1.00;99.90;;;;;;5116167;28;19918;-75
2022/12/28 07:52:01;;;;;;;;;;;-1.00;99.90;;;;;;5116304;27;19907;-75
2022/12/28 07:54:27;;;;;;;;;;;-1.00;99.90;;;;;;5116057;28;20347;-75
2022/12/28 07:56:52;;;;;;;;;;;-0.90;99.90;;;;;;5116285;28;19912;-75
2022/12/28 07:59:18;;;;;;;;;;;-0.90;99.90;;;;;;5115925;28;19918;-75
2022/12/28 08:01:43;;;;;;;;;;;-0.90;99.90;;;;;;5115463;28;19970;-75
2022/12/28 08:04:11;;;;;;;;;;;-0.90;99.90;;;;;;5115899;28;19912;-75
2022/12/28 08:06:38;;;;;;;;;;;-0.90;99.90;;;;;;5115860;28;19908;-75
2022/12/28 08:09:05;;;;;;;;;;;-0.90;99.90;;;;;;5116119;28;19908;-75
2022/12/28 08:11:31;;;;;;;;;;;-0.80;99.90;;;;;;5114577;28;19919;-75
2022/12/28 08:13:57;;;;;;;;;;;-0.80;99.90;;;;;;5115568;28;19912;-75
2022/12/28 08:16:25;;;;;;;;;;;-0.80;99.90;;;;;;5114082;28;19918;-75
2022/12/28 08:18:51;;;;;;;;;;;-0.70;99.90;;;;;;5116187;28;19908;-75
2022/12/28 08:21:22;;;;;;;;;;;-0.60;99.90;;;;;;5115482;28;19914;-75
2022/12/28 08:23:47;;;;;;;;;;;-0.60;99.90;;;;;;5106691;28;19908;-75
2022/12/28 08:26:15;;;;;;;;;;;-0.60;99.90;;;;;;5097669;28;19914;-75
2022/12/28 08:28:42;;;;;;;;;;;-0.50;99.90;;;;;;5094923;28;20364;-75
2022/12/28 08:31:08;;;;;;;;;;;-0.50;99.90;;;;;;5094979;28;19995;-75
2022/12/28 08:33:35;;;;;;;;;;;-0.50;99.90;;;;;;5100347;28;20072;-75
2022/12/28 08:36:00;;;;;;;;;;;-0.40;99.90;;;;;;5115522;28;19908;-75
2022/12/28 08:38:26;;;;;;;;;;;-0.40;99.90;;;;;;5115487;28;19912;-75
2022/12/28 08:40:59;;;;;;;;;;;-0.40;99.90;;;;;;5110784;28;20435;-75
2022/12/28 08:43:28;;;;;;;;;;;-0.40;99.90;;;;;;5114624;28;19914;-75
2022/12/28 08:45:58;;;;;;;;;;;-0.30;99.90;;;;;;5078935;28;19908;-75
2022/12/28 08:48:24;;;;;;;;;;;-0.30;99.90;;;;;;5094650;28;19908;-75
2022/12/28 08:50:49;;;;;;;;;;;-0.20;99.90;;;;;;5094940;28;19967;-75
2022/12/28 08:53:15;;;;;;;;;;;-0.20;99.90;;;;;;5094553;28;20301;-75
2022/12/28 08:55:41;;;;;;;;;;;-0.20;99.90;;;;;;5076343;28;19912;-75
2022/12/28 08:58:06;;;;;;;;;;;-0.20;99.90;;;;;;5094695;28;19944;-76
2022/12/28 09:00:32;;;;;;;;;;;-0.20;99.90;;;;;;5094406;28;19913;-75
2022/12/28 09:02:58;;;;;;;;;;;-0.20;99.90;;;;;;5094318;28;20423;-75
2022/12/28 09:05:23;;;;;;;;;;;-0.10;99.90;;;;;;5094340;28;20284;-75
2022/12/28 09:07:50;;;;;;;;;;;-0.10;99.90;;;;;;5094296;28;19959;-75
2022/12/28 09:10:15;;;;;;;;;;;-0.10;99.90;;;;;;5095133;28;19923;-75
2022/12/28 09:12:41;;;;;;;;;;;-0.10;99.90;;;;;;5094588;28;19916;-75
2022/12/28 09:15:07;;;;;;;;;;;0.00;99.90;;;;;;5094189;28;20398;-75
2022/12/28 09:17:32;;;;;;;;;;;0.10;99.90;;;;;;5094499;28;20378;-75
2022/12/28 09:19:58;;;;;;;;;;;0.10;99.90;;;;;;5076058;28;19963;-75
2022/12/28 09:22:23;;;;;;;;;;;0.20;99.90;;;;;;5094077;28;19918;-75
2022/12/28 09:24:49;;;;;;;;;;;0.30;99.90;;;;;;5094432;28;19922;-75
2022/12/28 09:27:14;;;;;;;;;;;0.40;99.90;;;;;;5094045;28;20011;-75
2022/12/28 09:29:40;;;;;;;;;;;0.50;99.90;;;;;;5094286;28;19912;-75
2022/12/28 09:32:06;;;;;;;;;;;0.60;99.90;;;;;;5093987;28;20364;-75
2022/12/28 09:34:31;;;;;;;;;;;0.70;99.90;;;;;;5093981;28;19908;-75
2022/12/28 09:36:57;;;;;;;;;;;0.80;99.90;;;;;;5094209;28;19919;-75
2022/12/28 09:39:23;;;;;;;;;;;0.80;99.90;;;;;;5093915;28;19912;-76
2022/12/28 09:41:51;;;;;;;;;;;1.00;99.90;;;;;;5093761;28;20256;-75
2022/12/28 09:44:36;;;;;;;;;;;1.00;99.90;;;;;;5075802;28;19908;-75
2022/12/28 09:47:20;;;;;;;;;;;1.10;99.90;;;;;;5094124;28;19908;-75
2022/12/28 09:49:56;;;;;;;;;;;1.20;99.90;;;;;;5093760;28;19962;-75
2022/12/28 09:52:27;;;;;;;;;;;1.30;99.90;;;;;;5093697;28;19966;-76
2022/12/28 09:54:53;;;;;;;;;;;1.40;99.90;;;;;;5075681;28;20364;-76
2022/12/28 09:57:19;;;;;;;;;;;1.50;99.90;;;;;;5093732;28;19909;-76
2022/12/28 09:59:46;;;;;;;;;;;1.50;99.90;;;;;;5093772;28;19999;-76
2022/12/28 10:02:26;;;;;;;;;;;1.60;99.90;;;;;;5075469;28;19909;-75
2022/12/28 10:04:52;;;;;;;;;;;1.70;99.90;;;;;;5093664;28;19915;-76
2022/12/28 10:07:17;;;;;;;;;;;1.80;99.90;;;;;;5093891;28;19912;-76
2022/12/28 10:09:44;;;;;;;;;;;1.90;99.90;;;;;;5094142;28;19958;-76
2022/12/28 10:12:12;;;;;;;;;;;2.00;99.90;;;;;;5093388;28;19934;-76
2022/12/28 10:14:38;;;;;;;;;;;2.00;99.90;;;;;;5093804;28;19908;-76
2022/12/28 10:17:06;;;;;;;;;;;2.10;99.90;;;;;;5095772;28;20188;-76
2022/12/28 10:19:31;;;;;;;;;;;2.20;99.90;;;;;;5113892;28;19912;-76
2022/12/28 10:21:57;;;;;;;;;;;2.20;99.90;;;;;;5113830;28;20394;-76
2022/12/28 10:24:23;;;;;;;;;;;2.30;99.90;;;;;;5114467;28;20263;-76
2022/12/28 10:26:48;;;;;;;;;;;2.40;99.90;;;;;;5099505;28;19907;-76
2022/12/28 10:29:21;;;;;;;;;;;2.50;99.90;;;;;;5117733;28;19919;-76
2022/12/28 10:31:58;;;;;;;;;;;2.60;99.90;;;;;;5117389;28;19915;-75
2022/12/28 10:34:24;;;;;;;;;;;2.60;99.90;;;;;;5115047;28;20375;-76
2022/12/28 10:36:50;;;;;;;;;;;2.60;99.90;;;;;;5099118;28;19919;-76
2022/12/28 10:39:19;;;;;;;;;;;2.70;99.90;;;;;;5100119;28;19919;-76
2022/12/28 10:41:45;;;;;;;;;;;2.70;99.90;;;;;;5097021;28;20010;-76
2022/12/28 10:44:18;;;;;;;;;;;2.70;99.90;;;;;;5097213;28;19963;-76
2022/12/28 10:47:02;;;;;;;;;;;2.70;99.90;;;;;;5097502;28;19914;-76
2022/12/28 10:49:33;;;;;;;;;;;2.80;99.90;;;;;;5097179;28;19915;-76
2022/12/28 10:52:00;;;;;;;;;;;2.80;99.90;;;;;;5097108;28;20002;-76
2022/12/28 10:54:25;;;;;;;;;;;2.90;99.90;;;;;;5078604;28;19938;-76
2022/12/28 10:56:51;;;;;;;;;;;2.90;99.90;;;;;;5096895;28;19913;-76
2022/12/28 10:59:18;;;;;;;;;;;2.90;99.90;;;;;;5096982;28;19997;-76
2022/12/28 11:01:43;;;;;;;;;;;2.90;99.90;;;;;;5096551;28;19908;-75
2022/12/28 11:04:16;;;;;;;;;;;3.00;99.90;;;;;;5096908;28;19995;-76
2022/12/28 11:06:59;;;;;;;;;;;3.00;99.90;;;;;;5096496;28;19908;-75
2022/12/28 11:09:26;;;;;;;;;;;3.10;99.90;;;;;;5096498;28;19908;-75
2022/12/28 11:11:53;;;;;;;;;;;3.10;99.90;;;;;;5096691;28;19915;-75
2022/12/28 11:14:21;;;;;;;;;;;3.10;99.90;;;;;;5096426;28;19912;-75
2022/12/28 11:16:47;;;;;;;;;;;3.10;99.90;;;;;;5096606;28;19908;-75
2022/12/28 11:19:13;;;;;;;;;;;3.20;99.90;;;;;;5078818;28;19919;-75
2022/12/28 11:21:40;;;;;;;;;;;3.20;99.90;;;;;;5096453;28;19918;-74
2022/12/28 11:24:06;;;;;;;;;;;3.20;99.90;;;;;;5096451;28;20002;-75
2022/12/28 11:26:31;;;;;;;;;;;3.30;99.90;;;;;;5096598;28;19989;-75
2022/12/28 11:28:59;;;;;;;;;;;3.30;99.90;;;;;;5078175;28;19919;-75
2022/12/28 11:31:36;;;;;;;;;;;3.30;99.90;;;;;;5096108;28;19909;-75
2022/12/28 11:34:04;;;;;;;;;;;3.30;99.90;;;;;;5096346;28;19939;-75
2022/12/28 11:36:30;;;;;;;;;;;3.30;99.90;;;;;;5095520;28;20268;-74
2022/12/28 11:38:56;;;;;;;;;;;3.30;99.90;;;;;;5096302;28;19958;-74
2022/12/28 11:41:29;;;;;;;;;;;3.40;99.90;;;;;;5095996;28;19912;-75
2022/12/28 11:43:55;;;;;;;;;;;3.40;99.90;;;;;;5077579;28;20001;-74
2022/12/28 11:46:21;;;;;;;;;;;3.40;99.90;;;;;;5096095;28;19912;-74
2022/12/28 11:48:46;;;;;;;;;;;3.40;99.90;;;;;;5096036;28;19991;-73
2022/12/28 11:51:18;;;;;;;;;;;3.40;99.90;;;;;;5096303;28;20007;-74
2022/12/28 11:53:44;;;;;;;;;;;3.40;99.90;;;;;;5095887;28;19919;-73
2022/12/28 11:56:13;;;;;;;;;;;3.50;99.90;;;;;;5096222;28;20275;-74
2022/12/28 11:58:39;;;;;;;;;;;3.50;99.90;;;;;;5095611;28;20276;-74
2022/12/28 12:01:06;;;;;;;;;;;3.60;99.90;;;;;;5095724;28;19908;-74
2022/12/28 12:03:51;;;;;;;;;;;3.60;99.90;;;;;;5077511;28;19997;-74
2022/12/28 12:06:16;;;;;;;;;;;3.60;99.90;;;;;;5095581;28;19962;-74
2022/12/28 12:08:47;;;;;;;;;;;3.60;99.90;;;;;;5095607;28;20295;-74
2022/12/28 12:11:20;;;;;;;;;;;3.70;99.90;;;;;;5095624;28;20046;-74
2022/12/28 12:13:49;;;;;;;;;;;3.70;99.90;;;;;;5077188;28;19923;-74
2022/12/28 12:16:20;;;;;;;;;;;3.70;99.90;;;;;;5095265;28;19908;-74
2022/12/28 12:18:47;;;;;;;;;;;3.70;99.90;;;;;;5095411;28;20295;-74
2022/12/28 12:21:22;;;;;;;;;;;3.80;99.90;;;;;;5095159;28;19912;-74
2022/12/28 12:23:51;;;;;;;;;;;3.80;99.90;;;;;;5105178;28;20383;-74
2022/12/28 12:26:26;;;;;;;;;;;3.80;99.90;;;;;;5111580;28;21481;-74
2022/12/28 12:28:54;;;;;;;;;;;3.80;99.90;;;;;;5114269;28;19908;-73
2022/12/28 12:31:41;;;;;;;;;;;3.80;99.90;;;;;;5115256;28;19908;-74
2022/12/28 12:34:30;;;;;;;;;;;3.80;99.90;;;;;;5096483;28;19955;-72
2022/12/28 12:36:55;;;;;;;;;;;3.90;99.90;;;;;;5109097;28;19912;-74
2022/12/28 12:39:22;;;;;;;;;;;3.90;99.90;;;;;;5114432;28;19973;-74
2022/12/28 12:42:11;;;;;;;;;;;3.90;99.90;;;;;;5096268;28;20305;-74
2022/12/28 12:44:39;;;;;;;;;;;3.90;99.90;;;;;;5084130;28;19915;-74
2022/12/28 12:47:23;;;;;;;;;;;3.90;99.90;;;;;;5094096;28;20439;-74
2022/12/28 12:50:07;;;;;;;;;;;4.00;99.90;;;;;;5093746;28;19915;-74
2022/12/28 12:52:33;;;;;;;;;;;4.00;99.90;;;;;;5094368;28;19939;-74
2022/12/28 12:55:17;;;;;;;;;;;4.00;99.90;;;;;;5094725;28;19918;-73
2022/12/28 12:57:52;;;;;;;;;;;4.10;99.90;;;;;;5094435;28;20333;-74
2022/12/28 13:00:19;;;;;;;;;;;4.10;99.90;;;;;;5094768;28;19912;-74
2022/12/28 13:03:03;;;;;;;;;;;4.20;99.90;;;;;;5076171;28;19914;-73
2022/12/28 13:05:30;;;;;;;;;;;4.20;99.90;;;;;;5094677;28;19958;-74
2022/12/28 13:07:57;;;;;;;;;;;4.30;99.90;;;;;;5094436;28;19919;-74
2022/12/28 13:10:49;;;;;;;;;;;4.30;99.90;;;;;;5094311;28;20003;-74
2022/12/28 13:13:21;;;;;;;;;;;4.40;99.90;;;;;;5089155;28;19952;-74
2022/12/28 13:15:47;;;;;;;;;;;4.40;99.90;;;;;;5094479;28;19916;-74
2022/12/28 13:18:17;;;;;;;;;;;4.40;99.90;;;;;;5076078;28;19915;-74
2022/12/28 13:20:53;;;;;;;;;;;4.40;99.90;;;;;;5094131;28;19962;-74
2022/12/28 13:23:20;;;;;;;;;;;4.50;99.90;;;;;;5094178;28;19913;-73
2022/12/28 13:25:47;;;;;;;;;;;4.50;99.90;;;;;;5094050;28;19916;-74
2022/12/28 13:28:21;;;;;;;;;;;4.50;99.90;;;;;;5094632;28;20327;-74
2022/12/28 13:31:01;;;;;;;;;;;4.50;99.90;;;;;;5093989;28;19912;-74
2022/12/28 13:33:29;;;;;;;;;;;4.50;99.90;;;;;;5094257;28;19923;-72
2022/12/28 13:36:11;;;;;;;;;;;4.50;99.90;;;;;;5093904;28;19912;-72
2022/12/28 13:38:37;;;;;;;;;;;4.50;99.90;;;;;;5093853;28;20363;-72
2022/12/28 13:41:03;;;;;;;;;;;4.50;99.90;;;;;;5094439;28;20003;-72
2022/12/28 13:43:47;;;;;;;;;;;4.40;99.90;;;;;;5093769;28;19947;-73
2022/12/28 13:46:15;;;;;;;;;;;4.40;99.90;;;;;;5075719;28;20276;-72
2022/12/28 13:48:45;;;;;;;;;;;4.40;99.90;;;;;;5093790;28;19931;-72
2022/12/28 13:51:12;;;;;;;;;;;4.40;99.90;;;;;;5093809;28;19908;-72
2022/12/28 13:53:38;;;;;;;;;;;4.40;99.90;;;;;;5093617;28;19916;-72
2022/12/28 13:56:05;;;;;;;;;;;4.40;99.90;;;;;;5093988;28;19963;-72
2022/12/28 13:58:34;;;;;;;;;;;4.40;99.90;;;;;;5093686;28;19934;-72
2022/12/28 14:01:03;;;;;;;;;;;4.40;99.90;;;;;;5096507;28;19912;-72
2022/12/28 14:03:29;;;;;;;;;;;4.40;99.90;;;;;;5097661;28;19908;-72
2022/12/28 14:05:59;;;;;;;;;;;4.40;99.90;;;;;;5097696;28;19914;-72
2022/12/28 14:08:26;;;;;;;;;;;4.40;99.90;;;;;;5097694;28;20372;-72
2022/12/28 14:10:52;;;;;;;;;;;4.30;99.90;;;;;;5097608;28;19908;-72
2022/12/28 14:13:18;;;;;;;;;;;4.30;99.90;;;;;;5097453;28;19916;-72
2022/12/28 14:15:45;;;;;;;;;;;4.30;99.90;;;;;;5097811;28;19912;-72
2022/12/28 14:18:14;;;;;;;;;;;4.20;99.90;;;;;;5097478;28;20356;-72
2022/12/28 14:20:47;;;;;;;;;;;4.20;99.90;;;;;;5079306;28;19914;-72
2022/12/28 14:23:21;;;;;;;;;;;4.20;99.90;;;;;;5114058;28;19950;-72
2022/12/28 14:25:46;;;;;;;;;;;4.10;99.90;;;;;;5117738;28;20351;-72
2022/12/28 14:28:14;;;;;;;;;;;4.10;99.90;;;;;;5099502;28;19908;-72
2022/12/28 14:30:40;;;;;;;;;;;4.00;99.90;;;;;;5117588;28;19915;-72
2022/12/28 14:33:19;;;;;;;;;;;4.10;99.90;;;;;;5117324;28;19923;-72
2022/12/28 14:35:47;;;;;;;;;;;4.00;99.90;;;;;;5099300;28;19908;-72
2022/12/28 14:38:18;;;;;;;;;;;4.00;99.90;;;;;;5099303;28;19908;-72
2022/12/28 14:40:50;;;;;;;;;;;3.90;99.90;;;;;;5117502;28;19915;-72
2022/12/28 14:43:20;;;;;;;;;;;3.90;99.90;;;;;;5117470;28;20367;-72
2022/12/28 14:45:46;;;;;;;;;;;3.80;99.90;;;;;;5117337;28;20408;-72
2022/12/28 14:48:24;;;;;;;;;;;3.80;99.90;;;;;;5117218;28;19993;-72
2022/12/28 14:50:57;;;;;;;;;;;3.70;99.90;;;;;;5117264;28;19961;-72
2022/12/28 14:53:23;;;;;;;;;;;3.70;99.90;;;;;;5096411;28;19919;-72